Time;durP1;ratioP1;P1;durP2;ratioP2;P2;SDS_P1;SDS_P2;PMS_P1;PMS_P2;Temp;Humidity;BMP_temperature;BMP_pressure;BME280_temperature;BME280_humidity;BME280_pressure;Samples;Min_cycle;Max_cycle;Signal;HPM_P1;HPM_P2
2021/05/12 02:45:09;;;;;;;14.82;11.68;;;19.30;78.90;;;;;;5784097;24;20041;31
2021/05/12 02:47:36;;;;;;;17.38;11.82;;;19.20;79.50;;;;;;4781815;30;20110;-77
2021/05/12 02:50:04;;;;;;;13.70;11.83;;;19.20;79.40;;;;;;4793303;29;20039;-77
2021/05/12 02:52:29;;;;;;;14.43;11.73;;;19.20;79.60;;;;;;4791439;30;20106;-77
2021/05/12 02:54:55;;;;;;;13.43;11.20;;;19.20;79.20;;;;;;4799372;30;20035;-77
2021/05/12 02:57:22;;;;;;;13.50;11.73;;;19.30;79.00;;;;;;4802421;29;20267;-78
2021/05/12 02:59:49;;;;;;;15.35;13.25;;;19.20;79.90;;;;;;4782969;30;20035;-77
2021/05/12 03:02:15;;;;;;;16.75;13.32;;;19.20;79.50;;;;;;4811124;29;20034;-77
2021/05/12 03:04:41;;;;;;;14.90;12.35;;;19.20;80.10;;;;;;4781725;29;20039;-77
2021/05/12 03:07:06;;;;;;;20.33;13.50;;;19.20;79.80;;;;;;4802325;29;20070;-79
2021/05/12 03:09:32;;;;;;;18.98;13.77;;;19.20;80.10;;;;;;4788574;29;20058;-77
2021/05/12 03:11:58;;;;;;;17.35;13.27;;;19.20;80.40;;;;;;4808622;29;20031;-77
2021/05/12 03:14:24;;;;;;;18.27;14.10;;;19.20;80.10;;;;;;4799853;29;20102;-78
2021/05/12 03:16:50;;;;;;;16.67;14.07;;;19.20;80.30;;;;;;4801960;29;20038;-77
2021/05/12 03:19:16;;;;;;;16.33;13.45;;;19.10;80.70;;;;;;4802383;29;20035;-78
2021/05/12 03:21:42;;;;;;;19.40;13.57;;;19.10;80.70;;;;;;4802373;29;20631;-78
2021/05/12 03:24:09;;;;;;;19.03;13.33;;;19.10;81.20;;;;;;4803989;29;20384;-78
2021/05/12 03:26:35;;;;;;;16.42;13.82;;;19.00;81.20;;;;;;4802295;29;20230;-79
2021/05/12 03:29:02;;;;;;;16.87;14.00;;;19.10;81.00;;;;;;4795126;29;20096;-78
2021/05/12 03:31:28;;;;;;;;;;;19.10;80.80;;;;;;4791141;29;20042;-78
2021/05/12 03:33:56;;;;;;;14.90;12.83;;;19.10;80.40;;;;;;4792282;29;20193;-78
2021/05/12 03:36:25;;;;;;;15.73;12.90;;;19.10;80.10;;;;;;4805380;29;20043;-78
2021/05/12 03:38:51;;;;;;;16.38;12.52;;;19.20;80.50;;;;;;4814543;29;20023;-78
2021/05/12 03:41:17;;;;;;;19.45;13.68;;;19.20;80.60;;;;;;4804597;29;20092;-78
2021/05/12 03:43:43;;;;;;;16.75;13.30;;;19.10;80.90;;;;;;4811430;29;20024;-80
2021/05/12 03:46:09;;;;;;;19.05;14.10;;;19.00;81.50;;;;;;4799222;29;20065;-78
2021/05/12 03:48:35;;;;;;;15.95;13.40;;;19.00;82.50;;;;;;4799610;29;20030;-78
2021/05/12 03:51:01;;;;;;;18.60;14.77;;;18.90;82.40;;;;;;4793991;29;20034;-78
2021/05/12 03:53:27;;;;;;;17.23;14.45;;;18.90;83.10;;;;;;4784293;30;20106;-78
2021/05/12 03:55:53;;;;;;;15.67;13.67;;;18.90;83.00;;;;;;4815029;29;20031;-78
2021/05/12 03:58:19;;;;;;;21.95;13.68;;;18.90;83.30;;;;;;4810245;29;20148;-78
2021/05/12 04:00:48;;;;;;;16.48;14.15;;;19.00;83.00;;;;;;4804920;29;20326;-77
2021/05/12 04:03:14;;;;;;;17.98;15.20;;;18.90;83.10;;;;;;4789965;29;20218;-78
2021/05/12 04:05:40;;;;;;;16.13;14.03;;;18.90;83.80;;;;;;4783291;29;20050;-78
2021/05/12 04:08:06;;;;;;;21.37;16.27;;;18.90;83.70;;;;;;4810248;29;20056;-78
2021/05/12 04:10:32;;;;;;;20.00;15.55;;;18.90;83.60;;;;;;4798585;29;20026;-78
2021/05/12 04:12:58;;;;;;;19.48;14.23;;;19.00;83.40;;;;;;4805416;29;20035;-78
2021/05/12 04:15:24;;;;;;;18.98;15.57;;;19.00;83.50;;;;;;4790617;29;20022;-78
2021/05/12 04:17:50;;;;;;;20.23;16.23;;;19.00;83.80;;;;;;4790888;30;20265;-78
2021/05/12 04:20:18;;;;;;;20.92;16.35;;;19.00;83.60;;;;;;4806468;29;20056;-78
2021/05/12 04:22:44;;;;;;;22.92;15.63;;;19.10;83.70;;;;;;4793196;29;20031;-78
2021/05/12 04:25:14;;;;;;;18.92;15.65;;;19.00;83.90;;;;;;4807745;29;20027;-79
2021/05/12 04:27:39;;;;;;;21.00;14.43;;;19.00;83.80;;;;;;4793031;29;20030;-78
2021/05/12 04:30:12;;;;;;;18.65;14.85;;;19.00;83.70;;;;;;4822160;29;20045;-78
2021/05/12 04:32:40;;;;;;;20.67;13.65;;;19.00;83.70;;;;;;4810543;29;20067;-78
2021/05/12 04:35:07;;;;;;;11.13;9.27;;;19.00;83.70;;;;;;4808814;29;20314;-78
2021/05/12 04:37:33;;;;;;;14.40;8.52;;;18.90;82.00;;;;;;4812808;29;20027;-78
2021/05/12 04:39:59;;;;;;;10.93;7.05;;;18.80;81.20;;;;;;4810459;29;20023;-78
2021/05/12 04:42:24;;;;;;;11.27;7.63;;;18.70;81.00;;;;;;4808519;29;20091;-78
2021/05/12 04:44:52;;;;;;;13.90;5.95;;;18.70;80.70;;;;;;4811818;29;20027;-78
2021/05/12 04:47:19;;;;;;;6.88;5.65;;;18.80;79.90;;;;;;4792209;29;20054;-78
2021/05/12 04:49:44;;;;;;;11.77;5.13;;;18.90;79.60;;;;;;4775983;30;20058;-80
2021/05/12 04:52:11;;;;;;;14.20;5.88;;;19.10;78.90;;;;;;4790213;29;20334;-78
2021/05/12 04:54:37;;;;;;;6.13;5.00;;;19.30;77.90;;;;;;4805707;29;20061;-78
2021/05/12 04:57:03;;;;;;;5.68;4.28;;;19.30;77.00;;;;;;4802157;29;20034;-78
2021/05/12 04:59:29;;;;;;;5.68;4.65;;;19.40;76.60;;;;;;4798764;29;20031;-78
2021/05/12 05:01:55;;;;;;;7.95;4.13;;;19.50;75.90;;;;;;4811966;29;20214;-78
2021/05/12 05:04:23;;;;;;;5.95;2.90;;;19.60;75.00;;;;;;4805928;29;20133;-77
2021/05/12 05:06:48;;;;;;;4.80;2.63;;;19.50;74.30;;;;;;4793585;29;20027;-78
2021/05/12 05:09:14;;;;;;;4.40;3.35;;;19.50;73.10;;;;;;4803347;29;20042;-78
2021/05/12 05:11:40;;;;;;;5.28;1.90;;;19.50;73.10;;;;;;4802196;29;20044;-77
2021/05/12 05:14:07;;;;;;;3.05;1.77;;;19.70;72.40;;;;;;4789808;29;20042;-78
2021/05/12 05:16:33;;;;;;;7.63;1.35;;;19.80;71.90;;;;;;4798313;29;20031;-78
2021/05/12 05:19:00;;;;;;;3.67;0.90;;;19.70;71.00;;;;;;4813393;29;20029;-79
2021/05/12 05:21:26;;;;;;;4.82;0.93;;;19.80;70.50;;;;;;4827869;29;20082;-78
2021/05/12 05:23:54;;;;;;;1.73;0.60;;;19.80;69.90;;;;;;4818456;29;20041;-78
2021/05/12 05:26:20;;;;;;;3.67;0.75;;;19.90;69.30;;;;;;4808006;29;20087;-78
2021/05/12 05:28:46;;;;;;;3.90;0.80;;;19.80;69.00;;;;;;4808789;29;20066;-79
2021/05/12 05:31:12;;;;;;;1.80;0.50;;;19.60;68.80;;;;;;4811590;29;20031;-79
2021/05/12 05:33:56;;;;;;;8.27;0.50;;;19.40;69.30;;;;;;4805311;29;20050;-79
2021/05/12 05:36:57;;;;;;;2.00;0.60;;;19.50;69.20;;;;;;4768620;30;20032;-79
2021/05/12 05:39:41;;;;;;;5.22;0.50;;;19.30;69.30;;;;;;4768615;30;20058;-79
2021/05/12 05:42:25;;;;;;;2.65;0.43;;;19.40;69.50;;;;;;4768654;30;20055;-79
2021/05/12 05:45:10;;;;;;;2.20;0.70;;;19.30;68.90;;;;;;4758001;30;20051;-79
2021/05/12 05:47:54;;;;;;;1.35;0.55;;;19.30;69.20;;;;;;4757846;30;20074;-79
2021/05/12 05:50:38;;;;;;;6.97;0.63;;;19.20;68.80;;;;;;4752767;30;20373;-79
2021/05/12 05:53:23;;;;;;;0.73;0.40;;;19.00;69.70;;;;;;4774126;30;20039;-79
2021/05/12 05:56:12;;;;;;;1.50;0.40;;;18.90;70.00;;;;;;4754711;30;20065;-80
2021/05/12 05:58:57;;;;;;;0.68;0.20;;;18.70;71.00;;;;;;4758961;30;20054;-79
2021/05/12 06:01:41;;;;;;;1.10;0.55;;;18.60;71.50;;;;;;4761965;30;20047;-79
2021/05/12 06:04:07;;;;;;;0.70;0.50;;;18.50;71.90;;;;;;4767689;30;20047;-79
2021/05/12 06:06:54;;;;;;;3.15;0.55;;;18.40;73.30;;;;;;4767979;30;20051;-79
2021/05/12 06:09:40;;;;;;;1.45;1.02;;;18.20;74.90;;;;;;4767686;30;20043;-79
2021/05/12 06:12:24;;;;;;;2.95;0.50;;;18.10;75.80;;;;;;4773190;30;20338;-79
2021/05/12 06:15:09;;;;;;;5.40;0.40;;;18.00;77.00;;;;;;4761102;30;20382;-79
2021/05/12 06:17:53;;;;;;;1.58;0.32;;;17.80;78.40;;;;;;4774412;30;20058;-79
2021/05/12 06:20:38;;;;;;;4.43;0.50;;;17.80;79.80;;;;;;4760077;30;20270;-79
2021/05/12 06:23:22;;;;;;;6.25;0.60;;;17.80;80.80;;;;;;4747335;30;20346;-79
2021/05/12 06:26:18;;;;;;;1.05;0.30;;;17.60;81.90;;;;;;4754340;30;20043;-79
2021/05/12 06:29:03;;;;;;;0.57;0.30;;;17.70;82.30;;;;;;4744992;30;20039;-79
2021/05/12 06:31:47;;;;;;;0.88;0.20;;;18.00;82.30;;;;;;4763159;30;20304;-79
2021/05/12 06:34:33;;;;;;;2.17;0.40;;;18.30;79.60;;;;;;4819790;29;20073;-79
2021/05/12 06:37:18;;;;;;;0.20;0.20;;;18.40;78.30;;;;;;4808452;29;21471;-79
2021/05/12 06:40:02;;;;;;;28.75;1.58;;;18.30;78.40;;;;;;4798888;29;20056;-80
2021/05/12 06:42:28;;;;;;;1.05;0.22;;;18.50;76.30;;;;;;4790600;29;20298;-79
2021/05/12 06:44:54;;;;;;;0.82;0.20;;;18.40;76.30;;;;;;4806021;29;20027;-80
2021/05/12 06:47:19;;;;;;;1.00;0.30;;;18.50;76.40;;;;;;4791110;29;20054;-80
2021/05/12 06:49:46;;;;;;;3.83;0.43;;;18.40;76.00;;;;;;4807335;29;20122;-79
2021/05/12 06:52:12;;;;;;;1.48;0.30;;;18.10;76.20;;;;;;4819480;29;20034;-79
2021/05/12 06:54:38;;;;;;;5.22;0.30;;;17.90;77.30;;;;;;4785403;29;20140;-79
2021/05/12 06:57:07;;;;;;;4.47;0.40;;;17.70;77.40;;;;;;4817149;29;20042;-79
2021/05/12 06:59:32;;;;;;;2.95;0.30;;;17.70;77.70;;;;;;4806966;29;20056;-79
2021/05/12 07:01:58;;;;;;;1.30;0.30;;;17.40;76.70;;;;;;4805701;29;20343;-79
2021/05/12 07:04:24;;;;;;;7.18;0.50;;;17.30;77.60;;;;;;4806525;29;20056;-80
2021/05/12 07:06:50;;;;;;;0.57;0.25;;;17.20;78.40;;;;;;4799670;29;20031;-79
2021/05/12 07:09:15;;;;;;;5.78;0.20;;;17.00;78.60;;;;;;4794435;29;20035;-79
2021/05/12 07:11:41;;;;;;;1.10;0.25;;;16.90;79.70;;;;;;4798989;29;20038;-79
2021/05/12 07:14:08;;;;;;;3.20;0.20;;;16.80;81.60;;;;;;4788765;29;20330;-79
2021/05/12 07:16:34;;;;;;;0.10;0.10;;;16.60;82.40;;;;;;4802814;29;20042;-79
2021/05/12 07:19:00;;;;;;;0.85;0.30;;;16.50;83.10;;;;;;4819434;29;20688;-78
2021/05/12 07:21:26;;;;;;;0.98;0.25;;;16.40;82.80;;;;;;4789638;29;20108;-79
2021/05/12 07:23:52;;;;;;;1.25;0.47;;;16.30;84.00;;;;;;4804793;29;20027;-78
2021/05/12 07:26:18;;;;;;;1.30;0.30;;;16.20;84.40;;;;;;4777590;29;20027;-81
2021/05/12 07:28:45;;;;;;;1.55;0.40;;;16.20;84.80;;;;;;4804525;29;20042;-79
2021/05/12 07:31:11;;;;;;;;;;;16.20;86.10;;;;;;4803333;29;20031;-80
2021/05/12 07:33:37;;;;;;;5.33;0.77;;;16.10;87.20;;;;;;4802656;29;19916;-80
2021/05/12 07:36:03;;;;;;;3.50;0.40;;;16.10;89.40;;;;;;4792945;30;20199;-78
2021/05/12 07:38:29;;;;;;;4.03;0.53;;;16.10;90.40;;;;;;4794629;29;20042;-77
2021/05/12 07:40:58;;;;;;;4.13;0.77;;;16.00;90.10;;;;;;4801416;29;20054;-77
2021/05/12 07:43:24;;;;;;;0.90;0.30;;;16.00;90.60;;;;;;4808327;29;20050;-78
2021/05/12 07:45:49;;;;;;;2.05;0.32;;;15.90;90.90;;;;;;4771394;29;20039;-78
2021/05/12 07:48:16;;;;;;;3.78;0.52;;;15.80;91.10;;;;;;4798635;30;20038;-78
2021/05/12 07:50:41;;;;;;;1.57;0.80;;;15.70;91.50;;;;;;4791553;30;20034;-77
2021/05/12 07:53:08;;;;;;;4.57;0.60;;;15.80;91.20;;;;;;4782929;30;20032;-77
2021/05/12 07:55:35;;;;;;;0.45;0.40;;;15.70;91.60;;;;;;4797405;29;20027;-77
2021/05/12 07:58:02;;;;;;;1.23;0.50;;;15.50;91.10;;;;;;4817701;29;20062;-77
2021/05/12 08:00:31;;;;;;;2.30;0.55;;;15.30;91.60;;;;;;4799408;29;20064;-77
2021/05/12 08:02:57;;;;;;;0.55;0.50;;;15.30;92.10;;;;;;4808095;29;20028;-77
2021/05/12 08:05:23;;;;;;;3.35;0.63;;;15.20;91.90;;;;;;4780563;29;20027;-78
2021/05/12 08:07:48;;;;;;;0.60;0.52;;;15.10;92.20;;;;;;4780565;29;20329;-77
2021/05/12 08:10:15;;;;;;;2.65;0.50;;;15.10;92.40;;;;;;4794472;29;20042;-77
2021/05/12 08:12:40;;;;;;;5.57;1.38;;;15.00;92.30;;;;;;4800936;29;20097;-77
2021/05/12 08:15:07;;;;;;;1.73;0.60;;;15.00;93.00;;;;;;4802774;29;20215;-77
2021/05/12 08:17:33;;;;;;;1.92;0.70;;;15.00;93.30;;;;;;4802143;29;20348;-77
2021/05/12 08:20:00;;;;;;;3.58;1.35;;;14.90;93.90;;;;;;4780010;29;20027;-76
2021/05/12 08:22:26;;;;;;;2.80;0.70;;;14.90;94.60;;;;;;4816702;29;20065;-77
2021/05/12 08:24:52;;;;;;;1.95;0.57;;;15.00;94.50;;;;;;4810675;29;20272;-76
2021/05/12 08:27:18;;;;;;;1.80;0.93;;;15.00;94.50;;;;;;4822953;29;20325;-77
2021/05/12 08:29:44;;;;;;;3.55;0.65;;;15.00;94.50;;;;;;4792625;29;20064;-77
2021/05/12 08:32:11;;;;;;;2.30;0.60;;;15.00;94.80;;;;;;4815460;29;20115;-77
2021/05/12 08:34:37;;;;;;;0.52;0.52;;;15.10;94.70;;;;;;4806804;29;20314;-77
2021/05/12 08:37:03;;;;;;;1.48;0.60;;;15.00;94.70;;;;;;4803613;29;20035;-77
2021/05/12 08:39:29;;;;;;;2.17;0.63;;;15.00;94.20;;;;;;4805807;29;20101;-77
2021/05/12 08:41:55;;;;;;;0.50;0.43;;;15.00;94.70;;;;;;4794675;29;20284;-77
2021/05/12 08:44:21;;;;;;;1.00;0.50;;;14.90;94.80;;;;;;4820893;29;20079;-77
2021/05/12 08:46:49;;;;;;;0.68;0.40;;;15.00;94.90;;;;;;4804154;29;20066;-77
2021/05/12 08:49:19;;;;;;;0.98;0.60;;;15.00;94.50;;;;;;4804493;29;20310;-77
2021/05/12 08:51:45;;;;;;;2.10;0.60;;;15.10;94.70;;;;;;4804361;29;20110;-77
2021/05/12 08:54:13;;;;;;;1.52;0.52;;;15.00;94.20;;;;;;4799021;29;20039;-77
2021/05/12 08:56:40;;;;;;;0.68;0.60;;;15.00;94.10;;;;;;4791953;29;20045;-77
2021/05/12 08:59:06;;;;;;;5.05;0.50;;;15.00;94.40;;;;;;4814166;29;20030;-77
2021/05/12 09:01:33;;;;;;;0.57;0.40;;;15.10;94.20;;;;;;4814404;29;20148;-77
2021/05/12 09:04:01;;;;;;;0.73;0.43;;;15.10;94.10;;;;;;4802607;29;20027;-77
2021/05/12 09:06:27;;;;;;;1.13;0.60;;;15.00;94.10;;;;;;4799625;29;20333;-77
2021/05/12 09:08:54;;;;;;;1.38;0.65;;;14.90;94.20;;;;;;4799842;29;20349;-78
2021/05/12 09:11:20;;;;;;;2.80;0.68;;;15.00;94.50;;;;;;4811005;29;20042;-75
2021/05/12 09:13:49;;;;;;;2.90;0.55;;;15.10;94.40;;;;;;4809082;29;20022;-77
2021/05/12 09:16:24;;;;;;;1.08;0.38;;;15.20;94.20;;;;;;4791394;29;20038;-77
2021/05/12 09:19:00;;;;;;;0.60;0.40;;;15.20;94.20;;;;;;4809053;29;20234;-78
2021/05/12 09:21:49;;;;;;;1.73;0.70;;;15.30;93.80;;;;;;4826120;29;20131;-78
2021/05/12 09:24:21;;;;;;;2.25;0.65;;;15.20;93.50;;;;;;4788544;29;20074;-77
2021/05/12 09:26:48;;;;;;;2.13;0.50;;;15.40;94.00;;;;;;4816460;29;20342;-77
2021/05/12 09:29:25;;;;;;;4.28;0.82;;;15.40;93.90;;;;;;4806062;29;20045;-77
2021/05/12 09:32:00;;;;;;;1.35;0.80;;;15.50;94.00;;;;;;4802109;30;20046;-77
2021/05/12 09:34:27;;;;;;;1.58;0.50;;;15.70;93.60;;;;;;4803035;29;20113;-78
2021/05/12 09:36:52;;;;;;;0.87;0.70;;;15.90;93.80;;;;;;4789105;29;20116;-77
2021/05/12 09:39:18;;;;;;;0.65;0.50;;;16.10;92.90;;;;;;4788615;29;20311;-78
2021/05/12 09:41:44;;;;;;;1.40;0.50;;;16.30;92.10;;;;;;4790377;29;20030;-79
2021/05/12 09:44:10;;;;;;;0.73;0.50;;;16.40;91.60;;;;;;4803709;29;20026;-77
2021/05/12 09:46:40;;;;;;;0.52;0.50;;;16.30;90.60;;;;;;4787947;29;20054;-78
2021/05/12 09:49:14;;;;;;;1.10;0.50;;;16.20;91.30;;;;;;4788711;29;20035;-77
2021/05/12 09:51:43;;;;;;;3.53;0.73;;;16.20;91.20;;;;;;4793318;29;20031;-77
2021/05/12 09:54:20;;;;;;;0.68;0.43;;;16.20;91.60;;;;;;4805863;29;20054;-77
2021/05/12 09:56:46;;;;;;;1.33;0.60;;;16.20;91.20;;;;;;4800021;29;20031;-76
2021/05/12 09:59:18;;;;;;;0.80;0.70;;;16.10;91.10;;;;;;4815383;29;20198;-76
2021/05/12 10:01:46;;;;;;;0.52;0.50;;;16.10;91.30;;;;;;4801611;29;20062;-77
2021/05/12 10:04:30;;;;;;;0.65;0.65;;;16.00;91.70;;;;;;4800190;29;20264;-77
2021/05/12 10:06:58;;;;;;;0.88;0.50;;;16.00;91.70;;;;;;4794407;29;20034;-77
2021/05/12 10:09:26;;;;;;;1.00;0.60;;;15.90;91.60;;;;;;4785351;29;20114;-77
2021/05/12 10:12:03;;;;;;;3.63;0.70;;;15.90;92.40;;;;;;4793400;29;20223;-77
2021/05/12 10:14:29;;;;;;;1.33;0.60;;;15.90;92.40;;;;;;4785993;29;20045;-77
2021/05/12 10:16:56;;;;;;;4.03;0.87;;;15.90;92.80;;;;;;4812854;29;20073;-77
2021/05/12 10:19:22;;;;;;;3.92;1.20;;;16.00;92.60;;;;;;4785812;29;20042;-77
2021/05/12 10:21:48;;;;;;;0.97;0.50;;;16.00;92.20;;;;;;4816668;29;20034;-77
2021/05/12 10:24:14;;;;;;;0.70;0.68;;;15.90;92.20;;;;;;4821780;29;20254;-77
2021/05/12 10:26:42;;;;;;;1.42;0.50;;;15.90;92.00;;;;;;4805350;29;20027;-77
2021/05/12 10:29:10;;;;;;;1.48;0.65;;;16.00;92.30;;;;;;4802374;29;20030;-77
2021/05/12 10:31:37;;;;;;;3.15;0.90;;;15.90;91.80;;;;;;4792870;29;20264;-77
2021/05/12 10:34:03;;;;;;;3.37;0.60;;;15.90;91.90;;;;;;4783853;29;20031;-77
2021/05/12 10:36:29;;;;;;;2.15;0.77;;;16.00;92.20;;;;;;4801413;29;20291;-77
2021/05/12 10:38:57;;;;;;;1.58;0.85;;;16.00;91.60;;;;;;4787415;29;20034;-77
2021/05/12 10:41:50;;;;;;;1.77;0.52;;;15.90;91.90;;;;;;4796193;29;20042;-77
2021/05/12 10:44:41;;;;;;;1.92;0.90;;;15.90;91.90;;;;;;4794301;29;20026;-77
2021/05/12 10:47:14;;;;;;;2.72;1.35;;;16.00;91.90;;;;;;4806977;29;20059;-77
2021/05/12 10:49:52;;;;;;;2.00;0.95;;;15.90;92.00;;;;;;4814339;29;20327;-77
2021/05/12 10:52:18;;;;;;;2.60;1.15;;;16.00;91.90;;;;;;4785152;29;20098;-77
2021/05/12 10:54:46;;;;;;;1.13;0.90;;;16.00;92.20;;;;;;4786740;29;20047;-77
2021/05/12 10:57:45;;;;;;;1.13;0.90;;;16.00;91.60;;;;;;4802402;29;20031;-77
2021/05/12 11:00:13;;;;;;;1.17;0.70;;;15.90;91.60;;;;;;4801793;29;20030;-77
2021/05/12 11:02:51;;;;;;;1.85;1.17;;;15.90;92.00;;;;;;4804341;29;20060;-77
2021/05/12 11:05:18;;;;;;;2.45;1.02;;;15.90;92.10;;;;;;4775599;29;20054;-77
2021/05/12 11:08:16;;;;;;;2.05;1.05;;;15.90;91.60;;;;;;4798863;29;20083;-77
2021/05/12 11:10:53;;;;;;;2.97;1.10;;;15.80;92.10;;;;;;4789626;29;20034;-78
2021/05/12 11:13:24;;;;;;;3.58;1.30;;;15.90;92.40;;;;;;4794511;30;20038;-78
2021/05/12 11:15:55;;;;;;;2.10;1.30;;;15.90;92.80;;;;;;4801930;29;20027;-78
2021/05/12 11:18:50;;;;;;;4.13;1.48;;;15.90;93.50;;;;;;4794017;30;20039;-78
2021/05/12 11:21:16;;;;;;;2.33;1.30;;;15.90;93.90;;;;;;4727972;30;20282;-77
2021/05/12 11:24:00;;;;;;;1.70;1.40;;;16.00;94.10;;;;;;4722947;30;20068;-77
2021/05/12 11:26:48;;;;;;;7.53;1.73;;;16.30;95.20;;;;;;4738184;30;20041;-77
2021/05/12 11:32:00;;;;;;;3.80;1.33;;;17.00;93.40;;;;;;4745088;30;20044;-77
2021/05/12 11:34:27;;;;;;;2.45;1.30;;;17.20;92.80;;;;;;4735673;30;20087;-77
2021/05/12 11:37:08;;;;;;;;;;;17.50;92.60;;;;;;4726626;30;20036;-77
2021/05/12 11:39:34;;;;;;;1.73;1.13;;;17.80;92.10;;;;;;4728737;30;19910;-77
2021/05/12 11:42:00;;;;;;;1.67;1.10;;;18.10;90.60;;;;;;4712539;30;20355;-77
2021/05/12 11:44:26;;;;;;;2.42;1.35;;;18.20;90.40;;;;;;4742434;30;20051;-77
2021/05/12 11:46:52;;;;;;;2.13;1.02;;;18.50;89.40;;;;;;4730327;30;20064;-77
2021/05/12 11:49:19;;;;;;;2.20;1.10;;;18.70;89.50;;;;;;4754438;30;20377;-77
2021/05/12 11:51:47;;;;;;;2.42;0.98;;;18.90;86.90;;;;;;4732979;30;20086;-77
2021/05/12 11:54:23;;;;;;;3.25;1.02;;;19.10;86.70;;;;;;4732743;30;20081;-77
2021/05/12 11:57:00;;;;;;;1.03;0.80;;;19.20;84.60;;;;;;4731892;30;20041;-80
2021/05/12 11:59:32;;;;;;;0.73;0.70;;;19.50;83.00;;;;;;4794602;30;20284;-78
2021/05/12 12:02:08;;;;;;;1.60;0.98;;;19.80;83.20;;;;;;4817686;29;20023;-79
2021/05/12 12:04:39;;;;;;;2.90;1.20;;;20.00;80.60;;;;;;4807147;29;20041;-78
2021/05/12 12:07:06;;;;;;;2.80;1.13;;;20.20;79.40;;;;;;4797073;29;20035;-79
2021/05/12 12:09:32;;;;;;;5.60;1.08;;;20.20;76.80;;;;;;4794826;29;20056;-79
2021/05/12 12:11:59;;;;;;;2.53;1.02;;;20.30;77.00;;;;;;4807388;29;20079;-79
2021/05/12 12:14:34;;;;;;;1.30;1.00;;;20.40;76.80;;;;;;4807088;29;20042;-79
2021/05/12 12:17:00;;;;;;;1.13;0.90;;;20.60;74.20;;;;;;4809595;29;20031;-79
2021/05/12 12:19:26;;;;;;;1.70;0.80;;;20.70;75.60;;;;;;4794731;29;20062;-79
2021/05/12 12:21:56;;;;;;;0.98;0.60;;;20.60;74.70;;;;;;4809505;29;20065;-79
2021/05/12 12:24:24;;;;;;;1.20;0.80;;;20.40;73.70;;;;;;4794394;29;20022;-79
2021/05/12 12:26:53;;;;;;;4.32;1.15;;;20.10;73.40;;;;;;4808852;29;20027;-79
2021/05/12 12:29:39;;;;;;;1.58;1.00;;;19.80;74.30;;;;;;4811251;29;20035;-79
2021/05/12 12:32:08;;;;;;;1.30;1.00;;;19.50;75.70;;;;;;4791899;29;20076;-79
2021/05/12 12:34:41;;;;;;;3.70;1.35;;;19.50;75.80;;;;;;4792969;30;20045;-79
2021/05/12 12:37:14;;;;;;;4.20;1.20;;;19.40;77.20;;;;;;4807327;29;20038;-79
2021/05/12 12:39:41;;;;;;;2.70;1.10;;;19.40;76.50;;;;;;4809564;29;20031;-79
2021/05/12 12:42:08;;;;;;;2.35;1.10;;;19.30;76.60;;;;;;4809288;29;20026;-79
2021/05/12 12:44:35;;;;;;;1.98;0.95;;;19.20;78.50;;;;;;4794269;29;20047;-79
2021/05/12 12:47:02;;;;;;;1.75;1.20;;;19.10;77.90;;;;;;4806611;29;20058;-79
2021/05/12 12:49:57;;;;;;;1.20;1.00;;;18.80;77.60;;;;;;4813206;29;20030;-80
2021/05/12 12:52:24;;;;;;;2.50;1.20;;;18.50;79.80;;;;;;4795797;29;20330;-79
2021/05/12 12:54:59;;;;;;;1.67;1.25;;;18.40;80.60;;;;;;4807435;29;20039;-79
2021/05/12 12:57:39;;;;;;;2.47;1.23;;;18.20;81.70;;;;;;4796693;29;20039;-79
2021/05/12 13:00:10;;;;;;;2.65;1.20;;;18.00;83.20;;;;;;4809301;29;20102;-80
2021/05/12 13:02:40;;;;;;;1.38;1.17;;;18.00;84.70;;;;;;4798852;29;20019;-80
2021/05/12 13:05:14;;;;;;;2.28;1.42;;;17.90;84.90;;;;;;4808288;29;20031;-80
2021/05/12 13:07:41;;;;;;;2.10;1.25;;;17.90;86.00;;;;;;4784235;30;20100;-80
2021/05/12 13:10:34;;;;;;;4.40;1.48;;;17.80;86.90;;;;;;4807588;29;20038;-80
2021/05/12 13:13:01;;;;;;;2.08;1.65;;;17.80;88.60;;;;;;4815954;29;20051;-80
2021/05/12 13:15:34;;;;;;;2.53;1.50;;;17.80;87.40;;;;;;4783747;29;20079;-80
2021/05/12 13:18:07;;;;;;;2.83;1.70;;;17.70;86.90;;;;;;4790586;29;20099;-81
2021/05/12 13:20:35;;;;;;;2.63;1.63;;;17.70;88.00;;;;;;4805365;29;20030;-81
2021/05/12 13:23:16;;;;;;;1.90;1.40;;;17.80;88.20;;;;;;4798094;29;20034;-81
2021/05/12 13:26:03;;;;;;;1.58;1.48;;;17.80;88.60;;;;;;4786105;30;20035;-81
2021/05/12 13:28:36;;;;;;;2.15;1.48;;;17.90;88.00;;;;;;4806949;29;20041;-81
2021/05/12 13:31:03;;;;;;;1.85;1.42;;;17.90;88.60;;;;;;4798668;29;20058;-81
2021/05/12 13:33:29;;;;;;;1.70;1.25;;;17.90;86.90;;;;;;4806756;29;20049;-80
2021/05/12 13:35:59;;;;;;;2.10;1.52;;;18.00;87.00;;;;;;4798650;29;20039;-80
2021/05/12 13:38:26;;;;;;;2.42;1.30;;;18.10;87.70;;;;;;4797472;29;20077;-80
2021/05/12 13:40:52;;;;;;;3.15;1.50;;;18.20;87.10;;;;;;4795228;29;20027;-80
2021/05/12 13:43:19;;;;;;;3.63;1.73;;;18.20;85.90;;;;;;4812394;29;20097;-80
2021/05/12 13:45:45;;;;;;;4.45;1.42;;;18.10;85.50;;;;;;4808562;29;20031;-80
2021/05/12 13:48:12;;;;;;;3.80;1.73;;;18.00;86.70;;;;;;4806775;29;20121;-80
2021/05/12 13:50:40;;;;;;;1.88;1.35;;;17.90;86.90;;;;;;4784960;30;20046;-80
2021/05/12 13:55:50;;;;;;;2.75;1.38;;;17.80;87.30;;;;;;4801441;29;20035;-80
2021/05/12 14:03:32;;;;;;;4.93;1.80;;;17.60;89.70;;;;;;4805970;29;20078;-80
2021/05/12 14:05:58;;;;;;;1.88;1.25;;;17.60;90.20;;;;;;4791376;29;20043;-80
2021/05/12 14:08:24;;;;;;;5.25;1.70;;;17.60;90.00;;;;;;4806515;29;20035;-80
2021/05/12 14:10:50;;;;;;;3.25;1.83;;;17.60;90.20;;;;;;4799459;29;20058;-80
2021/05/12 14:13:20;;;;;;;2.38;1.48;;;17.60;90.40;;;;;;4799310;29;20033;-81
2021/05/12 14:18:39;;;;;;;2.83;1.75;;;17.50;90.40;;;;;;4742371;30;20071;-80
2021/05/12 14:21:05;;;;;;;2.80;1.85;;;17.60;90.80;;;;;;4741610;30;20100;-80
2021/05/12 14:23:32;;;;;;;2.10;1.55;;;17.50;90.60;;;;;;4731271;30;20036;-80
2021/05/12 14:25:58;;;;;;;4.43;1.60;;;17.60;90.70;;;;;;4731032;30;20052;-80
2021/05/12 14:28:38;;;;;;;2.03;1.77;;;17.60;90.80;;;;;;4731321;30;20562;-80
2021/05/12 14:31:04;;;;;;;4.50;1.67;;;17.50;91.00;;;;;;4717442;30;20033;-80
2021/05/12 14:33:30;;;;;;;3.35;1.50;;;17.40;91.30;;;;;;4728793;30;20044;-80
2021/05/12 14:35:56;;;;;;;5.13;1.77;;;17.50;91.40;;;;;;4713460;30;20073;-79
2021/05/12 14:38:22;;;;;;;5.38;2.08;;;17.50;91.80;;;;;;4728240;30;20059;-79
2021/05/12 14:40:49;;;;;;;4.53;2.08;;;17.40;91.60;;;;;;4727831;30;20053;-78
2021/05/12 14:43:18;;;;;;;3.60;1.90;;;17.20;91.70;;;;;;4729463;30;20061;-79
2021/05/12 14:45:44;;;;;;;5.30;1.70;;;17.10;92.20;;;;;;4726926;30;20033;-78
2021/05/12 14:48:12;;;;;;;4.43;1.88;;;17.00;92.60;;;;;;4727552;30;20103;-78
2021/05/12 14:50:39;;;;;;;4.07;1.65;;;16.90;93.20;;;;;;4724453;30;20041;-78
2021/05/12 14:53:18;;;;;;;5.30;2.03;;;16.80;93.20;;;;;;4712156;30;20029;-77
2021/05/12 15:01:46;;;;;;;4.63;1.95;;;16.70;93.70;;;;;;4801449;29;20039;-77
2021/05/12 15:06:45;;;;;;;3.85;1.95;;;16.60;93.70;;;;;;4783010;30;20081;-78
2021/05/12 15:09:10;;;;;;;4.45;2.28;;;16.70;94.20;;;;;;4787447;29;20337;-78
2021/05/12 15:11:37;;;;;;;3.55;1.90;;;16.60;94.20;;;;;;4802720;29;20035;-78
2021/05/12 15:14:04;;;;;;;5.15;2.20;;;16.80;94.40;;;;;;4818120;29;20053;-78
2021/05/12 15:16:30;;;;;;;3.60;1.65;;;16.80;94.30;;;;;;4790655;30;20047;-78
2021/05/12 15:18:56;;;;;;;3.97;1.60;;;16.80;94.00;;;;;;4807434;29;20023;-78
2021/05/12 15:21:21;;;;;;;2.08;1.70;;;16.80;94.10;;;;;;4816746;29;20038;-78
2021/05/12 15:23:47;;;;;;;4.55;1.60;;;16.60;93.90;;;;;;4818713;29;20079;-78
2021/05/12 15:26:13;;;;;;;3.60;1.40;;;16.50;94.30;;;;;;4828450;29;20034;-78
2021/05/12 15:28:39;;;;;;;2.78;1.67;;;16.50;94.50;;;;;;4809867;29;20026;-78
2021/05/12 15:31:04;;;;;;;4.32;1.60;;;16.40;94.40;;;;;;4806760;29;20030;-78
2021/05/12 15:33:30;;;;;;;4.13;1.50;;;16.50;94.60;;;;;;4810961;29;20022;-78
2021/05/12 15:35:58;;;;;;;2.95;1.55;;;16.50;94.20;;;;;;4810540;29;20070;-78
2021/05/12 15:38:24;;;;;;;5.88;1.27;;;16.60;94.00;;;;;;4805151;29;20034;-78
2021/05/12 15:40:51;;;;;;;6.90;2.37;;;16.60;94.10;;;;;;4821272;29;20060;-78
2021/05/12 15:43:18;;;;;;;1.88;1.40;;;16.70;93.90;;;;;;4819449;29;20054;-78
2021/05/12 15:45:44;;;;;;;1.92;1.70;;;16.80;93.70;;;;;;4818075;29;20038;-79
2021/05/12 15:48:13;;;;;;;2.38;1.70;;;16.90;93.40;;;;;;4823340;29;20111;-79
2021/05/12 15:50:39;;;;;;;3.92;1.55;;;16.90;93.30;;;;;;4806616;29;20182;-78
2021/05/12 15:53:06;;;;;;;2.30;1.13;;;16.90;93.10;;;;;;4811588;29;20038;-78
2021/05/12 15:55:33;;;;;;;1.98;1.25;;;17.10;92.90;;;;;;4817032;29;20030;-79
2021/05/12 15:57:58;;;;;;;2.00;1.13;;;17.10;92.50;;;;;;4833911;29;20080;-78
2021/05/12 16:00:24;;;;;;;1.35;0.90;;;17.10;92.20;;;;;;4823466;29;20022;-78
2021/05/12 16:02:55;;;;;;;1.23;0.77;;;17.00;92.40;;;;;;4796034;29;20044;-79
2021/05/12 16:05:21;;;;;;;1.30;1.08;;;17.00;92.50;;;;;;4811461;29;20037;-79